sensor_id;sensor_type;location;lat;lon;timestamp;P1;durP1;ratioP1;P2;durP2;ratioP2
54259;SDS011;40172;53.022;7.012;2023-04-06T00:01:39;11.93;;;5.93;;
54259;SDS011;40172;53.022;7.012;2023-04-06T00:04:05;15.23;;;7.63;;
54259;SDS011;40172;53.022;7.012;2023-04-06T00:06:31;16.52;;;9.10;;
54259;SDS011;40172;53.022;7.012;2023-04-06T00:08:58;12.82;;;6.97;;
54259;SDS011;40172;53.022;7.012;2023-04-06T00:11:24;15.35;;;7.30;;
54259;SDS011;40172;53.022;7.012;2023-04-06T00:13:50;16.70;;;8.98;;
54259;SDS011;40172;53.022;7.012;2023-04-06T00:16:16;12.32;;;7.03;;
54259;SDS011;40172;53.022;7.012;2023-04-06T00:18:42;10.95;;;6.57;;
54259;SDS011;40172;53.022;7.012;2023-04-06T00:21:08;22.27;;;6.82;;
54259;SDS011;40172;53.022;7.012;2023-04-06T00:23:36;12.70;;;7.60;;
54259;SDS011;40172;53.022;7.012;2023-04-06T00:26:01;22.65;;;13.27;;
54259;SDS011;40172;53.022;7.012;2023-04-06T00:28:27;12.70;;;6.00;;
54259;SDS011;40172;53.022;7.012;2023-04-06T00:30:54;11.05;;;6.65;;
54259;SDS011;40172;53.022;7.012;2023-04-06T00:33:20;17.15;;;7.75;;
54259;SDS011;40172;53.022;7.012;2023-04-06T00:35:47;12.73;;;7.47;;
54259;SDS011;40172;53.022;7.012;2023-04-06T00:38:13;13.55;;;7.22;;
54259;SDS011;40172;53.022;7.012;2023-04-06T00:40:39;14.38;;;6.50;;
54259;SDS011;40172;53.022;7.012;2023-04-06T00:43:05;12.68;;;7.47;;
54259;SDS011;40172;53.022;7.012;2023-04-06T00:45:32;16.48;;;8.65;;
54259;SDS011;40172;53.022;7.012;2023-04-06T00:47:58;13.82;;;8.07;;
54259;SDS011;40172;53.022;7.012;2023-04-06T00:50:24;13.60;;;8.50;;
54259;SDS011;40172;53.022;7.012;2023-04-06T00:52:50;20.00;;;10.80;;
54259;SDS011;40172;53.022;7.012;2023-04-06T00:55:16;14.48;;;7.72;;
54259;SDS011;40172;53.022;7.012;2023-04-06T00:57:42;18.80;;;9.57;;
54259;SDS011;40172;53.022;7.012;2023-04-06T01:00:08;11.70;;;6.55;;
54259;SDS011;40172;53.022;7.012;2023-04-06T01:02:33;13.77;;;7.15;;
54259;SDS011;40172;53.022;7.012;2023-04-06T01:04:59;18.83;;;10.38;;
54259;SDS011;40172;53.022;7.012;2023-04-06T01:07:25;15.30;;;8.75;;
54259;SDS011;40172;53.022;7.012;2023-04-06T01:09:52;29.35;;;11.48;;
54259;SDS011;40172;53.022;7.012;2023-04-06T01:12:21;12.38;;;7.20;;
54259;SDS011;40172;53.022;7.012;2023-04-06T01:14:47;14.23;;;6.05;;
54259;SDS011;40172;53.022;7.012;2023-04-06T01:17:13;20.98;;;12.48;;
54259;SDS011;40172;53.022;7.012;2023-04-06T01:19:38;16.52;;;9.30;;
54259;SDS011;40172;53.022;7.012;2023-04-06T01:25:03;15.48;;;7.07;;
54259;SDS011;40172;53.022;7.012;2023-04-06T01:27:29;9.40;;;5.55;;
54259;SDS011;40172;53.022;7.012;2023-04-06T01:29:55;15.40;;;6.85;;
54259;SDS011;40172;53.022;7.012;2023-04-06T01:32:20;12.55;;;6.00;;
54259;SDS011;40172;53.022;7.012;2023-04-06T01:34:46;12.60;;;7.18;;
54259;SDS011;40172;53.022;7.012;2023-04-06T01:37:12;15.55;;;8.18;;
54259;SDS011;40172;53.022;7.012;2023-04-06T01:39:37;18.08;;;9.70;;
54259;SDS011;40172;53.022;7.012;2023-04-06T01:42:03;18.10;;;7.07;;
54259;SDS011;40172;53.022;7.012;2023-04-06T01:44:28;10.38;;;6.22;;
54259;SDS011;40172;53.022;7.012;2023-04-06T01:46:55;12.88;;;6.50;;
54259;SDS011;40172;53.022;7.012;2023-04-06T01:49:21;11.40;;;7.10;;
54259;SDS011;40172;53.022;7.012;2023-04-06T01:51:47;15.68;;;6.15;;
54259;SDS011;40172;53.022;7.012;2023-04-06T01:54:12;11.88;;;5.30;;
54259;SDS011;40172;53.022;7.012;2023-04-06T01:56:38;18.08;;;10.35;;
54259;SDS011;40172;53.022;7.012;2023-04-06T01:59:03;20.35;;;11.45;;
54259;SDS011;40172;53.022;7.012;2023-04-06T02:01:29;14.65;;;7.80;;
54259;SDS011;40172;53.022;7.012;2023-04-06T02:03:55;18.13;;;10.10;;
54259;SDS011;40172;53.022;7.012;2023-04-06T02:06:20;18.88;;;10.27;;
54259;SDS011;40172;53.022;7.012;2023-04-06T02:08:46;16.42;;;7.82;;
54259;SDS011;40172;53.022;7.012;2023-04-06T02:11:11;11.55;;;6.97;;
54259;SDS011;40172;53.022;7.012;2023-04-06T02:13:37;11.45;;;6.18;;
54259;SDS011;40172;53.022;7.012;2023-04-06T02:16:03;10.32;;;6.60;;
54259;SDS011;40172;53.022;7.012;2023-04-06T02:18:30;18.08;;;11.55;;
54259;SDS011;40172;53.022;7.012;2023-04-06T02:20:56;13.43;;;8.63;;
54259;SDS011;40172;53.022;7.012;2023-04-06T02:23:21;14.00;;;7.00;;
54259;SDS011;40172;53.022;7.012;2023-04-06T02:25:47;14.90;;;6.07;;
54259;SDS011;40172;53.022;7.012;2023-04-06T02:28:12;10.60;;;5.72;;
54259;SDS011;40172;53.022;7.012;2023-04-06T02:30:39;27.50;;;18.52;;
54259;SDS011;40172;53.022;7.012;2023-04-06T02:33:04;18.48;;;8.40;;
54259;SDS011;40172;53.022;7.012;2023-04-06T02:35:30;13.52;;;6.43;;
54259;SDS011;40172;53.022;7.012;2023-04-06T02:37:56;16.58;;;9.55;;
54259;SDS011;40172;53.022;7.012;2023-04-06T02:40:22;12.32;;;6.40;;
54259;SDS011;40172;53.022;7.012;2023-04-06T02:42:48;12.02;;;7.43;;
54259;SDS011;40172;53.022;7.012;2023-04-06T02:45:13;14.48;;;7.20;;
54259;SDS011;40172;53.022;7.012;2023-04-06T02:47:39;9.60;;;6.05;;
54259;SDS011;40172;53.022;7.012;2023-04-06T02:50:05;27.88;;;23.05;;
54259;SDS011;40172;53.022;7.012;2023-04-06T02:52:31;13.98;;;8.23;;
54259;SDS011;40172;53.022;7.012;2023-04-06T02:54:57;7.72;;;4.85;;
54259;SDS011;40172;53.022;7.012;2023-04-06T02:57:22;10.77;;;5.78;;
54259;SDS011;40172;53.022;7.012;2023-04-06T02:59:48;7.22;;;5.00;;
54259;SDS011;40172;53.022;7.012;2023-04-06T03:02:13;9.38;;;5.22;;
54259;SDS011;40172;53.022;7.012;2023-04-06T03:04:39;9.73;;;4.32;;
54259;SDS011;40172;53.022;7.012;2023-04-06T03:07:04;15.55;;;6.70;;
54259;SDS011;40172;53.022;7.012;2023-04-06T03:09:30;9.40;;;5.70;;
54259;SDS011;40172;53.022;7.012;2023-04-06T03:11:55;14.57;;;6.90;;
54259;SDS011;40172;53.022;7.012;2023-04-06T03:14:21;10.13;;;6.03;;
54259;SDS011;40172;53.022;7.012;2023-04-06T03:16:50;11.55;;;6.43;;
54259;SDS011;40172;53.022;7.012;2023-04-06T03:19:15;8.23;;;5.47;;
54259;SDS011;40172;53.022;7.012;2023-04-06T03:21:41;12.82;;;7.18;;
54259;SDS011;40172;53.022;7.012;2023-04-06T03:24:07;10.75;;;5.30;;
54259;SDS011;40172;53.022;7.012;2023-04-06T03:26:33;18.30;;;10.35;;
54259;SDS011;40172;53.022;7.012;2023-04-06T03:28:58;30.73;;;8.65;;
54259;SDS011;40172;53.022;7.012;2023-04-06T03:31:24;9.20;;;5.10;;
54259;SDS011;40172;53.022;7.012;2023-04-06T03:33:50;12.77;;;7.35;;
54259;SDS011;40172;53.022;7.012;2023-04-06T03:36:16;12.43;;;7.03;;
54259;SDS011;40172;53.022;7.012;2023-04-06T03:38:41;12.82;;;6.97;;
54259;SDS011;40172;53.022;7.012;2023-04-06T03:41:07;17.92;;;6.47;;
54259;SDS011;40172;53.022;7.012;2023-04-06T03:43:32;9.75;;;6.22;;
54259;SDS011;40172;53.022;7.012;2023-04-06T03:45:58;10.95;;;5.47;;
54259;SDS011;40172;53.022;7.012;2023-04-06T03:48:23;11.10;;;6.43;;
54259;SDS011;40172;53.022;7.012;2023-04-06T03:50:49;12.93;;;7.13;;
54259;SDS011;40172;53.022;7.012;2023-04-06T03:53:14;20.25;;;9.43;;
54259;SDS011;40172;53.022;7.012;2023-04-06T03:55:40;15.88;;;7.85;;
54259;SDS011;40172;53.022;7.012;2023-04-06T03:58:06;11.50;;;6.50;;
54259;SDS011;40172;53.022;7.012;2023-04-06T04:00:31;10.23;;;5.53;;
54259;SDS011;40172;53.022;7.012;2023-04-06T04:02:58;15.27;;;7.88;;
54259;SDS011;40172;53.022;7.012;2023-04-06T04:05:23;8.55;;;5.47;;
54259;SDS011;40172;53.022;7.012;2023-04-06T04:07:51;12.27;;;6.38;;
54259;SDS011;40172;53.022;7.012;2023-04-06T04:10:17;10.07;;;6.50;;
54259;SDS011;40172;53.022;7.012;2023-04-06T04:12:42;13.50;;;6.28;;
54259;SDS011;40172;53.022;7.012;2023-04-06T04:15:08;12.95;;;6.55;;
54259;SDS011;40172;53.022;7.012;2023-04-06T04:17:34;11.25;;;5.72;;
54259;SDS011;40172;53.022;7.012;2023-04-06T04:20:00;15.30;;;4.80;;
54259;SDS011;40172;53.022;7.012;2023-04-06T04:22:25;8.63;;;5.72;;
54259;SDS011;40172;53.022;7.012;2023-04-06T04:24:52;11.05;;;5.88;;
54259;SDS011;40172;53.022;7.012;2023-04-06T04:27:18;11.30;;;5.78;;
54259;SDS011;40172;53.022;7.012;2023-04-06T04:29:44;12.25;;;6.45;;
54259;SDS011;40172;53.022;7.012;2023-04-06T04:32:10;7.22;;;4.75;;
54259;SDS011;40172;53.022;7.012;2023-04-06T04:34:35;11.48;;;5.85;;
54259;SDS011;40172;53.022;7.012;2023-04-06T04:37:01;7.40;;;3.88;;
54259;SDS011;40172;53.022;7.012;2023-04-06T04:39:26;8.45;;;5.38;;
54259;SDS011;40172;53.022;7.012;2023-04-06T04:41:52;7.75;;;4.32;;
54259;SDS011;40172;53.022;7.012;2023-04-06T04:44:18;12.55;;;4.63;;
54259;SDS011;40172;53.022;7.012;2023-04-06T04:46:44;8.65;;;5.35;;
54259;SDS011;40172;53.022;7.012;2023-04-06T04:49:10;14.18;;;5.95;;
54259;SDS011;40172;53.022;7.012;2023-04-06T04:51:35;9.65;;;5.18;;
54259;SDS011;40172;53.022;7.012;2023-04-06T04:54:01;14.13;;;4.13;;
54259;SDS011;40172;53.022;7.012;2023-04-06T04:56:27;12.27;;;5.45;;
54259;SDS011;40172;53.022;7.012;2023-04-06T04:58:53;9.35;;;5.05;;
54259;SDS011;40172;53.022;7.012;2023-04-06T05:01:19;21.70;;;5.05;;
54259;SDS011;40172;53.022;7.012;2023-04-06T05:03:45;6.78;;;3.85;;
54259;SDS011;40172;53.022;7.012;2023-04-06T05:06:11;15.68;;;6.30;;
54259;SDS011;40172;53.022;7.012;2023-04-06T05:08:36;14.18;;;5.75;;
54259;SDS011;40172;53.022;7.012;2023-04-06T05:11:02;15.68;;;5.70;;
54259;SDS011;40172;53.022;7.012;2023-04-06T05:13:29;22.40;;;5.47;;
54259;SDS011;40172;53.022;7.012;2023-04-06T05:15:55;10.35;;;4.72;;
54259;SDS011;40172;53.022;7.012;2023-04-06T05:18:20;10.10;;;5.88;;
54259;SDS011;40172;53.022;7.012;2023-04-06T05:20:47;7.20;;;4.28;;
54259;SDS011;40172;53.022;7.012;2023-04-06T05:23:13;9.95;;;5.72;;
54259;SDS011;40172;53.022;7.012;2023-04-06T05:25:38;7.50;;;4.00;;
54259;SDS011;40172;53.022;7.012;2023-04-06T05:28:04;9.93;;;5.85;;
54259;SDS011;40172;53.022;7.012;2023-04-06T05:30:30;8.82;;;5.70;;
54259;SDS011;40172;53.022;7.012;2023-04-06T05:32:55;15.45;;;7.25;;
54259;SDS011;40172;53.022;7.012;2023-04-06T05:35:21;12.32;;;5.28;;
54259;SDS011;40172;53.022;7.012;2023-04-06T05:37:47;18.92;;;5.13;;
54259;SDS011;40172;53.022;7.012;2023-04-06T05:40:12;7.72;;;4.70;;
54259;SDS011;40172;53.022;7.012;2023-04-06T05:42:38;8.27;;;4.75;;
54259;SDS011;40172;53.022;7.012;2023-04-06T05:45:10;7.13;;;4.75;;
54259;SDS011;40172;53.022;7.012;2023-04-06T05:47:41;23.95;;;14.63;;
54259;SDS011;40172;53.022;7.012;2023-04-06T05:50:08;8.90;;;5.18;;
54259;SDS011;40172;53.022;7.012;2023-04-06T05:52:33;10.13;;;6.20;;
54259;SDS011;40172;53.022;7.012;2023-04-06T05:54:59;7.85;;;4.75;;
54259;SDS011;40172;53.022;7.012;2023-04-06T05:57:24;18.77;;;13.20;;
54259;SDS011;40172;53.022;7.012;2023-04-06T05:59:50;11.23;;;5.72;;
54259;SDS011;40172;53.022;7.012;2023-04-06T06:02:15;7.07;;;4.63;;
54259;SDS011;40172;53.022;7.012;2023-04-06T06:04:41;7.90;;;4.78;;
54259;SDS011;40172;53.022;7.012;2023-04-06T06:07:06;13.77;;;5.68;;
54259;SDS011;40172;53.022;7.012;2023-04-06T06:09:32;8.77;;;5.28;;
54259;SDS011;40172;53.022;7.012;2023-04-06T06:11:57;8.48;;;5.13;;
54259;SDS011;40172;53.022;7.012;2023-04-06T06:14:24;9.27;;;5.50;;
54259;SDS011;40172;53.022;7.012;2023-04-06T06:16:50;10.07;;;5.80;;
54259;SDS011;40172;53.022;7.012;2023-04-06T06:19:15;8.50;;;5.30;;
54259;SDS011;40172;53.022;7.012;2023-04-06T06:21:41;8.32;;;4.70;;
54259;SDS011;40172;53.022;7.012;2023-04-06T06:24:06;7.88;;;4.55;;
54259;SDS011;40172;53.022;7.012;2023-04-06T06:26:32;15.55;;;5.32;;
54259;SDS011;40172;53.022;7.012;2023-04-06T06:29:00;7.20;;;4.53;;
54259;SDS011;40172;53.022;7.012;2023-04-06T06:31:26;9.63;;;5.57;;
54259;SDS011;40172;53.022;7.012;2023-04-06T06:33:51;7.38;;;4.63;;
54259;SDS011;40172;53.022;7.012;2023-04-06T06:36:17;11.40;;;5.68;;
54259;SDS011;40172;53.022;7.012;2023-04-06T06:38:43;9.75;;;4.53;;
54259;SDS011;40172;53.022;7.012;2023-04-06T06:41:09;6.80;;;4.05;;
54259;SDS011;40172;53.022;7.012;2023-04-06T06:43:35;10.45;;;5.18;;
54259;SDS011;40172;53.022;7.012;2023-04-06T06:46:00;5.55;;;3.72;;
54259;SDS011;40172;53.022;7.012;2023-04-06T06:48:26;7.65;;;4.00;;
54259;SDS011;40172;53.022;7.012;2023-04-06T06:50:52;13.27;;;5.68;;
54259;SDS011;40172;53.022;7.012;2023-04-06T06:53:17;9.02;;;4.90;;
54259;SDS011;40172;53.022;7.012;2023-04-06T06:55:44;12.65;;;5.55;;
54259;SDS011;40172;53.022;7.012;2023-04-06T06:58:10;9.52;;;5.10;;
54259;SDS011;40172;53.022;7.012;2023-04-06T07:00:36;10.40;;;5.30;;
54259;SDS011;40172;53.022;7.012;2023-04-06T07:03:01;12.90;;;5.43;;
54259;SDS011;40172;53.022;7.012;2023-04-06T07:05:27;14.85;;;12.10;;
54259;SDS011;40172;53.022;7.012;2023-04-06T07:07:53;9.85;;;6.28;;
54259;SDS011;40172;53.022;7.012;2023-04-06T07:10:19;12.57;;;7.38;;
54259;SDS011;40172;53.022;7.012;2023-04-06T07:12:44;9.48;;;5.45;;
54259;SDS011;40172;53.022;7.012;2023-04-06T07:15:11;11.10;;;5.93;;
54259;SDS011;40172;53.022;7.012;2023-04-06T07:17:36;25.23;;;7.18;;
54259;SDS011;40172;53.022;7.012;2023-04-06T07:20:02;15.57;;;11.00;;
54259;SDS011;40172;53.022;7.012;2023-04-06T07:22:27;9.65;;;5.95;;
54259;SDS011;40172;53.022;7.012;2023-04-06T07:24:53;7.28;;;4.70;;
54259;SDS011;40172;53.022;7.012;2023-04-06T07:27:19;9.82;;;5.20;;
54259;SDS011;40172;53.022;7.012;2023-04-06T07:29:45;8.13;;;5.20;;
54259;SDS011;40172;53.022;7.012;2023-04-06T07:32:11;15.73;;;11.43;;
54259;SDS011;40172;53.022;7.012;2023-04-06T07:34:36;8.40;;;5.55;;
54259;SDS011;40172;53.022;7.012;2023-04-06T07:37:02;16.15;;;6.00;;
54259;SDS011;40172;53.022;7.012;2023-04-06T07:39:28;7.70;;;3.95;;
54259;SDS011;40172;53.022;7.012;2023-04-06T07:41:53;8.10;;;5.28;;
54259;SDS011;40172;53.022;7.012;2023-04-06T07:44:19;10.18;;;5.50;;
54259;SDS011;40172;53.022;7.012;2023-04-06T07:46:45;11.32;;;5.40;;
54259;SDS011;40172;53.022;7.012;2023-04-06T07:49:10;10.15;;;5.30;;
54259;SDS011;40172;53.022;7.012;2023-04-06T07:51:37;7.85;;;4.45;;
54259;SDS011;40172;53.022;7.012;2023-04-06T07:54:03;9.15;;;5.40;;
54259;SDS011;40172;53.022;7.012;2023-04-06T07:56:28;11.60;;;10.35;;
54259;SDS011;40172;53.022;7.012;2023-04-06T07:58:54;19.35;;;10.23;;
54259;SDS011;40172;53.022;7.012;2023-04-06T08:01:22;16.13;;;9.95;;
54259;SDS011;40172;53.022;7.012;2023-04-06T08:03:48;14.60;;;10.00;;
54259;SDS011;40172;53.022;7.012;2023-04-06T08:06:14;11.27;;;9.93;;
54259;SDS011;40172;53.022;7.012;2023-04-06T08:08:40;15.15;;;10.27;;
54259;SDS011;40172;53.022;7.012;2023-04-06T08:11:06;12.55;;;10.07;;
54259;SDS011;40172;53.022;7.012;2023-04-06T08:13:31;13.07;;;9.70;;
54259;SDS011;40172;53.022;7.012;2023-04-06T08:15:57;13.93;;;9.88;;
54259;SDS011;40172;53.022;7.012;2023-04-06T08:18:23;15.65;;;9.65;;
54259;SDS011;40172;53.022;7.012;2023-04-06T08:20:49;13.35;;;10.30;;
54259;SDS011;40172;53.022;7.012;2023-04-06T08:23:15;11.43;;;9.40;;
54259;SDS011;40172;53.022;7.012;2023-04-06T08:25:40;14.63;;;9.52;;
54259;SDS011;40172;53.022;7.012;2023-04-06T08:28:07;10.73;;;9.30;;
54259;SDS011;40172;53.022;7.012;2023-04-06T08:30:34;11.85;;;9.52;;
54259;SDS011;40172;53.022;7.012;2023-04-06T08:33:00;14.27;;;9.77;;
54259;SDS011;40172;53.022;7.012;2023-04-06T08:35:26;12.43;;;9.88;;
54259;SDS011;40172;53.022;7.012;2023-04-06T08:37:52;15.63;;;10.00;;
54259;SDS011;40172;53.022;7.012;2023-04-06T08:40:17;12.23;;;9.65;;
54259;SDS011;40172;53.022;7.012;2023-04-06T08:42:44;11.75;;;9.23;;
54259;SDS011;40172;53.022;7.012;2023-04-06T08:45:24;13.85;;;9.70;;
54259;SDS011;40172;53.022;7.012;2023-04-06T08:47:50;13.32;;;8.85;;
54259;SDS011;40172;53.022;7.012;2023-04-06T08:50:17;13.70;;;9.00;;
54259;SDS011;40172;53.022;7.012;2023-04-06T08:52:44;17.70;;;9.77;;
54259;SDS011;40172;53.022;7.012;2023-04-06T08:55:12;11.82;;;8.82;;
54259;SDS011;40172;53.022;7.012;2023-04-06T08:57:37;12.88;;;9.02;;
54259;SDS011;40172;53.022;7.012;2023-04-06T09:00:04;11.07;;;9.35;;
54259;SDS011;40172;53.022;7.012;2023-04-06T09:02:31;11.75;;;8.88;;
54259;SDS011;40172;53.022;7.012;2023-04-06T09:04:57;14.32;;;9.18;;
54259;SDS011;40172;53.022;7.012;2023-04-06T09:07:23;13.75;;;9.55;;
54259;SDS011;40172;53.022;7.012;2023-04-06T09:09:49;12.77;;;9.10;;
54259;SDS011;40172;53.022;7.012;2023-04-06T09:12:30;11.65;;;9.20;;
54259;SDS011;40172;53.022;7.012;2023-04-06T09:14:56;13.35;;;9.57;;
54259;SDS011;40172;53.022;7.012;2023-04-06T09:17:23;11.70;;;9.05;;
54259;SDS011;40172;53.022;7.012;2023-04-06T09:19:57;14.73;;;9.93;;
54259;SDS011;40172;53.022;7.012;2023-04-06T09:22:24;14.27;;;9.75;;
54259;SDS011;40172;53.022;7.012;2023-04-06T09:24:52;14.15;;;9.45;;
54259;SDS011;40172;53.022;7.012;2023-04-06T09:27:31;15.18;;;9.70;;
54259;SDS011;40172;53.022;7.012;2023-04-06T09:32:44;11.18;;;9.13;;
54259;SDS011;40172;53.022;7.012;2023-04-06T09:35:13;16.77;;;9.23;;
54259;SDS011;40172;53.022;7.012;2023-04-06T09:37:39;12.90;;;9.18;;
54259;SDS011;40172;53.022;7.012;2023-04-06T09:40:05;15.65;;;9.73;;
54259;SDS011;40172;53.022;7.012;2023-04-06T09:42:32;12.15;;;9.40;;
54259;SDS011;40172;53.022;7.012;2023-04-06T09:44:59;13.73;;;10.07;;
54259;SDS011;40172;53.022;7.012;2023-04-06T09:47:24;13.20;;;9.85;;
54259;SDS011;40172;53.022;7.012;2023-04-06T09:49:54;17.67;;;10.05;;
54259;SDS011;40172;53.022;7.012;2023-04-06T09:52:23;13.45;;;9.93;;
54259;SDS011;40172;53.022;7.012;2023-04-06T09:54:52;16.25;;;10.15;;
54259;SDS011;40172;53.022;7.012;2023-04-06T09:57:37;24.20;;;9.63;;
54259;SDS011;40172;53.022;7.012;2023-04-06T10:00:17;16.20;;;10.70;;
54259;SDS011;40172;53.022;7.012;2023-04-06T10:08:05;23.35;;;11.43;;
54259;SDS011;40172;53.022;7.012;2023-04-06T10:10:33;17.02;;;11.98;;
54259;SDS011;40172;53.022;7.012;2023-04-06T10:12:58;16.33;;;12.00;;
54259;SDS011;40172;53.022;7.012;2023-04-06T10:15:25;16.65;;;12.57;;
54259;SDS011;40172;53.022;7.012;2023-04-06T10:17:52;22.73;;;13.85;;
54259;SDS011;40172;53.022;7.012;2023-04-06T10:20:23;18.35;;;12.02;;
54259;SDS011;40172;53.022;7.012;2023-04-06T10:23:03;19.42;;;13.98;;
54259;SDS011;40172;53.022;7.012;2023-04-06T10:25:33;18.73;;;13.35;;
54259;SDS011;40172;53.022;7.012;2023-04-06T10:28:05;14.65;;;12.68;;
54259;SDS011;40172;53.022;7.012;2023-04-06T10:30:32;18.70;;;14.65;;
54259;SDS011;40172;53.022;7.012;2023-04-06T10:32:58;17.40;;;13.63;;
54259;SDS011;40172;53.022;7.012;2023-04-06T10:35:24;18.45;;;14.30;;
54259;SDS011;40172;53.022;7.012;2023-04-06T10:38:03;20.55;;;14.10;;
54259;SDS011;40172;53.022;7.012;2023-04-06T10:40:30;19.52;;;15.45;;
54259;SDS011;40172;53.022;7.012;2023-04-06T10:43:06;17.45;;;14.90;;
54259;SDS011;40172;53.022;7.012;2023-04-06T10:45:36;18.55;;;14.27;;
54259;SDS011;40172;53.022;7.012;2023-04-06T10:48:15;20.85;;;14.82;;
54259;SDS011;40172;53.022;7.012;2023-04-06T10:50:47;19.35;;;14.20;;
54259;SDS011;40172;53.022;7.012;2023-04-06T10:53:26;22.15;;;15.57;;
54259;SDS011;40172;53.022;7.012;2023-04-06T10:55:55;21.05;;;15.52;;
54259;SDS011;40172;53.022;7.012;2023-04-06T10:58:25;19.42;;;15.45;;
54259;SDS011;40172;53.022;7.012;2023-04-06T11:00:52;21.33;;;15.20;;
54259;SDS011;40172;53.022;7.012;2023-04-06T11:03:20;21.55;;;16.30;;
54259;SDS011;40172;53.022;7.012;2023-04-06T11:05:46;25.35;;;15.85;;
54259;SDS011;40172;53.022;7.012;2023-04-06T11:08:25;21.10;;;17.25;;
54259;SDS011;40172;53.022;7.012;2023-04-06T11:11:07;22.48;;;17.80;;
54259;SDS011;40172;53.022;7.012;2023-04-06T11:21:40;21.98;;;17.75;;
54259;SDS011;40172;53.022;7.012;2023-04-06T11:24:16;26.02;;;18.58;;
54259;SDS011;40172;53.022;7.012;2023-04-06T11:26:46;23.73;;;18.17;;
54259;SDS011;40172;53.022;7.012;2023-04-06T11:29:17;23.88;;;18.58;;
54259;SDS011;40172;53.022;7.012;2023-04-06T11:32:05;25.45;;;18.25;;
54259;SDS011;40172;53.022;7.012;2023-04-06T11:34:36;24.50;;;18.95;;
54259;SDS011;40172;53.022;7.012;2023-04-06T11:37:04;22.85;;;18.40;;
54259;SDS011;40172;53.022;7.012;2023-04-06T11:39:52;26.98;;;18.70;;
54259;SDS011;40172;53.022;7.012;2023-04-06T11:42:21;24.40;;;18.75;;
54259;SDS011;40172;53.022;7.012;2023-04-06T11:44:49;25.30;;;19.52;;
54259;SDS011;40172;53.022;7.012;2023-04-06T11:47:17;24.58;;;18.38;;
54259;SDS011;40172;53.022;7.012;2023-04-06T11:49:44;22.63;;;18.52;;
54259;SDS011;40172;53.022;7.012;2023-04-06T11:52:20;21.17;;;17.88;;
54259;SDS011;40172;53.022;7.012;2023-04-06T11:54:50;22.63;;;18.30;;
54259;SDS011;40172;53.022;7.012;2023-04-06T11:57:17;24.10;;;18.98;;
54259;SDS011;40172;53.022;7.012;2023-04-06T11:59:44;25.20;;;19.55;;
54259;SDS011;40172;53.022;7.012;2023-04-06T12:02:10;25.02;;;18.63;;
54259;SDS011;40172;53.022;7.012;2023-04-06T12:04:36;25.92;;;18.85;;
54259;SDS011;40172;53.022;7.012;2023-04-06T12:07:02;28.35;;;18.98;;
54259;SDS011;40172;53.022;7.012;2023-04-06T12:09:28;24.83;;;18.88;;
54259;SDS011;40172;53.022;7.012;2023-04-06T12:11:54;27.08;;;20.48;;
54259;SDS011;40172;53.022;7.012;2023-04-06T12:14:21;29.23;;;19.98;;
54259;SDS011;40172;53.022;7.012;2023-04-06T12:16:47;27.23;;;20.05;;
54259;SDS011;40172;53.022;7.012;2023-04-06T12:19:12;24.08;;;19.67;;
54259;SDS011;40172;53.022;7.012;2023-04-06T12:21:38;25.00;;;19.20;;
54259;SDS011;40172;53.022;7.012;2023-04-06T12:24:04;27.38;;;19.75;;
54259;SDS011;40172;53.022;7.012;2023-04-06T12:26:30;24.42;;;19.48;;
54259;SDS011;40172;53.022;7.012;2023-04-06T12:28:56;28.23;;;20.38;;
54259;SDS011;40172;53.022;7.012;2023-04-06T12:31:23;27.15;;;21.05;;
54259;SDS011;40172;53.022;7.012;2023-04-06T12:33:50;25.08;;;20.60;;
54259;SDS011;40172;53.022;7.012;2023-04-06T12:36:17;27.10;;;20.77;;
54259;SDS011;40172;53.022;7.012;2023-04-06T12:38:47;24.15;;;19.77;;
54259;SDS011;40172;53.022;7.012;2023-04-06T12:41:13;27.75;;;21.20;;
54259;SDS011;40172;53.022;7.012;2023-04-06T12:43:40;28.17;;;20.75;;
54259;SDS011;40172;53.022;7.012;2023-04-06T12:46:07;25.77;;;20.60;;
54259;SDS011;40172;53.022;7.012;2023-04-06T12:48:33;27.10;;;20.10;;
54259;SDS011;40172;53.022;7.012;2023-04-06T12:51:01;29.60;;;21.35;;
54259;SDS011;40172;53.022;7.012;2023-04-06T12:53:28;24.05;;;20.52;;
54259;SDS011;40172;53.022;7.012;2023-04-06T12:55:54;24.13;;;20.40;;
54259;SDS011;40172;53.022;7.012;2023-04-06T12:58:21;25.33;;;20.08;;
54259;SDS011;40172;53.022;7.012;2023-04-06T13:00:47;27.83;;;21.67;;
54259;SDS011;40172;53.022;7.012;2023-04-06T13:03:14;27.00;;;20.73;;
54259;SDS011;40172;53.022;7.012;2023-04-06T13:05:46;29.02;;;21.70;;
54259;SDS011;40172;53.022;7.012;2023-04-06T13:08:13;28.35;;;20.17;;
54259;SDS011;40172;53.022;7.012;2023-04-06T13:10:50;29.13;;;21.42;;
54259;SDS011;40172;53.022;7.012;2023-04-06T13:13:17;24.42;;;21.15;;
54259;SDS011;40172;53.022;7.012;2023-04-06T13:15:45;23.98;;;20.77;;
54259;SDS011;40172;53.022;7.012;2023-04-06T13:18:11;34.10;;;21.92;;
54259;SDS011;40172;53.022;7.012;2023-04-06T13:20:37;25.58;;;21.75;;
54259;SDS011;40172;53.022;7.012;2023-04-06T13:23:02;34.90;;;21.50;;
54259;SDS011;40172;53.022;7.012;2023-04-06T13:25:28;25.20;;;21.20;;
54259;SDS011;40172;53.022;7.012;2023-04-06T13:27:54;29.92;;;22.40;;
54259;SDS011;40172;53.022;7.012;2023-04-06T13:30:20;25.67;;;21.08;;
54259;SDS011;40172;53.022;7.012;2023-04-06T13:32:46;34.90;;;21.75;;
54259;SDS011;40172;53.022;7.012;2023-04-06T13:35:11;29.65;;;21.33;;
54259;SDS011;40172;53.022;7.012;2023-04-06T13:37:37;25.67;;;20.80;;
54259;SDS011;40172;53.022;7.012;2023-04-06T13:40:03;26.45;;;21.38;;
54259;SDS011;40172;53.022;7.012;2023-04-06T13:42:30;29.75;;;21.70;;
54259;SDS011;40172;53.022;7.012;2023-04-06T13:44:56;26.92;;;20.90;;
54259;SDS011;40172;53.022;7.012;2023-04-06T13:47:22;29.98;;;22.13;;
54259;SDS011;40172;53.022;7.012;2023-04-06T13:49:49;28.67;;;21.88;;
54259;SDS011;40172;53.022;7.012;2023-04-06T13:52:16;25.75;;;21.63;;
54259;SDS011;40172;53.022;7.012;2023-04-06T13:54:42;29.52;;;22.17;;
54259;SDS011;40172;53.022;7.012;2023-04-06T13:57:07;30.30;;;22.40;;
54259;SDS011;40172;53.022;7.012;2023-04-06T13:59:34;27.45;;;21.40;;
54259;SDS011;40172;53.022;7.012;2023-04-06T14:02:00;27.15;;;22.08;;
54259;SDS011;40172;53.022;7.012;2023-04-06T14:04:27;24.40;;;21.25;;
54259;SDS011;40172;53.022;7.012;2023-04-06T14:06:53;28.35;;;22.63;;
54259;SDS011;40172;53.022;7.012;2023-04-06T14:09:18;25.88;;;21.48;;
54259;SDS011;40172;53.022;7.012;2023-04-06T14:11:44;26.55;;;21.55;;
54259;SDS011;40172;53.022;7.012;2023-04-06T14:14:10;26.15;;;22.17;;
54259;SDS011;40172;53.022;7.012;2023-04-06T14:16:35;27.77;;;22.10;;
54259;SDS011;40172;53.022;7.012;2023-04-06T14:19:01;26.55;;;21.45;;
54259;SDS011;40172;53.022;7.012;2023-04-06T14:21:27;30.67;;;22.30;;
54259;SDS011;40172;53.022;7.012;2023-04-06T14:23:53;30.52;;;22.85;;
54259;SDS011;40172;53.022;7.012;2023-04-06T14:26:19;26.58;;;21.55;;
54259;SDS011;40172;53.022;7.012;2023-04-06T14:28:44;28.30;;;21.73;;
54259;SDS011;40172;53.022;7.012;2023-04-06T14:31:12;26.25;;;22.13;;
54259;SDS011;40172;53.022;7.012;2023-04-06T14:33:39;28.92;;;21.60;;
54259;SDS011;40172;53.022;7.012;2023-04-06T14:36:06;28.88;;;23.13;;
54259;SDS011;40172;53.022;7.012;2023-04-06T14:38:32;28.83;;;23.45;;
54259;SDS011;40172;53.022;7.012;2023-04-06T14:40:58;30.50;;;23.02;;
54259;SDS011;40172;53.022;7.012;2023-04-06T14:43:23;28.55;;;21.48;;
54259;SDS011;40172;53.022;7.012;2023-04-06T14:45:50;26.20;;;22.15;;
54259;SDS011;40172;53.022;7.012;2023-04-06T14:48:16;27.60;;;22.38;;